createdAt,value
2022-10-11T00:00:31.797Z,84.31
2022-10-11T00:03:01.806Z,83.51
2022-10-11T00:05:29.871Z,83.89
2022-10-11T00:07:57.872Z,83.92
2022-10-11T00:10:26.153Z,84.18
2022-10-11T00:12:54.039Z,84.58
2022-10-11T00:15:23.157Z,84.54
2022-10-11T00:17:51.255Z,83.90
2022-10-11T00:20:31.384Z,84.14
2022-10-11T00:23:09.847Z,83.85
2022-10-11T00:26:00.007Z,83.69
2022-10-11T00:28:41.534Z,84.07
2022-10-11T00:31:21.867Z,83.95
2022-10-11T00:34:01.576Z,83.30
2022-10-11T00:36:41.282Z,83.43
2022-10-11T00:39:21.265Z,83.24
2022-10-11T00:42:02.568Z,83.52
2022-10-11T00:44:46.595Z,83.80
2022-10-11T00:47:25.964Z,83.14
2022-10-11T00:50:20.488Z,83.24
2022-10-11T00:53:04.365Z,82.79
2022-10-11T00:55:52.098Z,83.00
2022-10-11T00:58:35.006Z,82.74
2022-10-11T01:01:13.892Z,82.95
2022-10-11T01:03:54.113Z,82.84
2022-10-11T01:06:35.805Z,83.15
2022-10-11T01:09:16.709Z,83.13
2022-10-11T01:12:00.465Z,82.77
2022-10-11T01:15:09.275Z,82.84
2022-10-11T01:17:58.354Z,82.26
2022-10-11T01:20:50.241Z,81.94
2022-10-11T01:24:05.997Z,82.21
2022-10-11T01:27:18.726Z,82.08
2022-10-11T01:30:24.410Z,82.30
2022-10-11T01:33:18.253Z,82.56
2022-10-11T01:36:09.073Z,82.21
2022-10-11T01:38:54.658Z,82.46
2022-10-11T01:41:39.374Z,82.14
2022-10-11T01:44:21.518Z,82.45
2022-10-11T01:47:01.437Z,82.45
2022-10-11T01:49:41.955Z,82.43
2022-10-11T01:52:21.532Z,81.89
2022-10-11T01:55:19.889Z,82.08
2022-10-11T01:58:15.137Z,82.01
2022-10-11T02:01:04.699Z,82.22
2022-10-11T02:03:50.207Z,81.91
2022-10-11T02:06:36.627Z,82.16
2022-10-11T02:09:28.813Z,82.66
2022-10-11T02:12:13.276Z,82.24
2022-10-11T02:14:57.545Z,82.49
2022-10-11T02:17:43.040Z,81.91
2022-10-11T02:20:27.280Z,81.92
2022-10-11T02:23:11.622Z,81.28
2022-10-11T02:25:50.981Z,81.68
2022-10-11T02:28:34.866Z,82.17
2022-10-11T02:31:18.314Z,82.50
2022-10-11T02:34:06.559Z,82.55
2022-10-11T02:36:55.827Z,81.96
2022-10-11T02:39:40.987Z,81.94
2022-10-11T02:42:26.929Z,82.16
2022-10-11T02:45:12.846Z,82.45
2022-10-11T02:47:55.517Z,82.25
2022-10-11T02:50:36.027Z,82.25
2022-10-11T02:53:15.757Z,82.34
2022-10-11T02:55:56.583Z,82.63
2022-10-11T02:58:36.962Z,82.67
2022-10-11T03:01:17.164Z,81.77
2022-10-11T03:03:58.083Z,81.69
2022-10-11T03:06:37.883Z,81.74
2022-10-11T03:09:17.715Z,82.21
2022-10-11T03:11:57.503Z,82.38
2022-10-11T03:14:38.927Z,82.67
2022-10-11T03:17:35.516Z,82.81
2022-10-11T03:20:16.222Z,81.91
2022-10-11T03:22:54.627Z,82.06
2022-10-11T03:25:34.775Z,82.63
2022-10-11T03:28:15.600Z,82.99
2022-10-11T03:31:07.248Z,82.46
2022-10-11T03:33:46.874Z,82.24
2022-10-11T03:36:25.375Z,82.52
2022-10-11T03:39:05.186Z,82.02
2022-10-11T03:41:44.694Z,81.79
2022-10-11T03:44:24.492Z,82.50
2022-10-11T03:47:04.294Z,82.95
2022-10-11T03:49:44.046Z,82.49
2022-10-11T03:52:23.909Z,82.57
2022-10-11T03:55:04.080Z,82.28
2022-10-11T03:57:43.724Z,82.17
2022-10-11T04:00:23.303Z,82.04
2022-10-11T04:03:04.696Z,82.74
2022-10-11T04:05:44.419Z,81.23
2022-10-11T04:08:41.817Z,82.53
2022-10-11T04:11:21.731Z,81.93
2022-10-11T04:14:02.101Z,82.23
2022-10-11T04:16:42.930Z,82.86
2022-10-11T04:19:37.768Z,83.20
2022-10-11T04:22:17.905Z,82.81
2022-10-11T04:25:00.269Z,82.86
2022-10-11T04:27:40.657Z,82.32
2022-10-11T04:30:21.794Z,83.08
2022-10-11T04:33:01.489Z,82.87
2022-10-11T04:35:41.446Z,82.89
2022-10-11T04:38:21.024Z,82.59
2022-10-11T04:41:08.448Z,83.52
2022-10-11T04:43:49.202Z,82.54
2022-10-11T04:46:30.299Z,82.96
2022-10-11T04:49:09.820Z,82.81
2022-10-11T04:51:49.638Z,83.57
2022-10-11T04:54:29.538Z,82.95
2022-10-11T04:57:09.255Z,82.97
2022-10-11T04:59:50.348Z,82.25
2022-10-11T05:02:30.427Z,82.58
2022-10-11T05:05:10.959Z,83.60
2022-10-11T05:07:51.571Z,83.19
2022-10-11T05:10:31.425Z,82.64
2022-10-11T05:13:11.169Z,82.78
2022-10-11T05:15:51.035Z,82.83
2022-10-11T05:18:31.344Z,83.01
2022-10-11T05:21:18.861Z,82.72
2022-10-11T05:23:59.058Z,82.95
2022-10-11T05:26:39.742Z,82.67
2022-10-11T05:29:21.323Z,82.83
2022-10-11T05:32:00.995Z,83.07
2022-10-11T05:34:40.824Z,81.88
2022-10-11T05:37:20.913Z,82.78
2022-10-11T05:40:00.335Z,84.00
2022-10-11T05:42:40.180Z,82.74
2022-10-11T05:45:33.218Z,83.34
2022-10-11T05:48:13.565Z,83.30
2022-10-11T05:50:52.996Z,83.39
2022-10-11T05:53:33.062Z,82.53
2022-10-11T05:56:24.106Z,83.56
2022-10-11T05:59:03.489Z,82.58
2022-10-11T06:01:43.345Z,83.11
2022-10-11T06:04:23.145Z,82.73
2022-10-11T06:07:03.408Z,82.64
2022-10-11T06:09:42.974Z,82.52
2022-10-11T06:12:23.159Z,82.41
2022-10-11T06:15:18.635Z,81.58
2022-10-11T06:18:11.847Z,81.92
2022-10-11T06:21:09.854Z,81.25
2022-10-11T06:24:03.479Z,81.36
2022-10-11T06:27:01.227Z,81.06
2022-10-11T06:30:08.464Z,80.33
2022-10-11T06:33:05.664Z,80.25
2022-10-11T06:36:00.718Z,79.66
2022-10-11T06:38:55.938Z,79.32
2022-10-11T06:41:50.515Z,79.11
2022-10-11T06:44:46.492Z,78.52
2022-10-11T06:47:47.087Z,77.48
2022-10-11T06:50:59.051Z,77.75
2022-10-11T06:53:55.547Z,76.84
2022-10-11T06:56:52.857Z,77.36
2022-10-11T06:59:50.205Z,77.97
2022-10-11T07:02:52.930Z,76.58
2022-10-11T07:05:46.256Z,77.06
2022-10-11T07:08:56.252Z,76.51
2022-10-11T07:11:51.081Z,76.90
2022-10-11T07:14:48.493Z,76.65
2022-10-11T07:17:42.274Z,76.09
2022-10-11T07:20:51.526Z,75.52
2022-10-11T07:23:47.944Z,75.54
2022-10-11T07:26:42.540Z,74.95
2022-10-11T07:29:42.567Z,73.91
2022-10-11T07:32:52.415Z,73.71
2022-10-11T07:35:48.413Z,73.57
2022-10-11T07:38:48.255Z,73.35
2022-10-11T07:41:54.225Z,73.53
2022-10-11T07:44:47.566Z,72.78
2022-10-11T07:47:46.560Z,72.71
2022-10-11T07:50:52.804Z,72.05
2022-10-11T07:53:57.236Z,70.83
2022-10-11T07:56:51.655Z,70.38
2022-10-11T07:59:50.105Z,67.74
2022-10-11T08:02:48.332Z,65.67
2022-10-11T08:05:45.825Z,65.67
2022-10-11T08:08:42.340Z,57.48
2022-10-11T08:11:38.424Z,60.35
2022-10-11T08:14:36.391Z,64.00
2022-10-11T08:17:46.856Z,65.00
2022-10-11T08:20:52.894Z,64.80
2022-10-11T08:23:51.116Z,59.10
2022-10-11T08:26:48.196Z,46.94
2022-10-11T08:29:27.131Z,44.18
2022-10-11T08:32:38.586Z,51.10
2022-10-11T08:35:39.045Z,44.69
2022-10-11T08:38:32.972Z,42.69
2022-10-11T08:41:43.246Z,45.06
2022-10-11T08:45:09.458Z,37.45
2022-10-11T08:48:13.198Z,40.42
2022-10-11T08:50:44.000Z,43.27
2022-10-11T08:53:20.923Z,47.02
2022-10-11T08:55:52.357Z,49.47
2022-10-11T08:58:23.383Z,50.45
2022-10-11T09:00:54.271Z,51.54
2022-10-11T09:03:37.887Z,53.80
2022-10-11T09:06:16.131Z,55.86
2022-10-11T09:09:01.796Z,56.25
2022-10-11T09:11:46.639Z,56.46
2022-10-11T09:14:37.641Z,56.58
2022-10-11T09:17:14.529Z,55.28
2022-10-11T09:20:04.449Z,53.13
2022-10-11T09:22:45.266Z,51.60
2022-10-11T09:25:23.478Z,52.56
2022-10-11T09:28:03.557Z,51.37
2022-10-11T09:30:32.590Z,51.42
2022-10-11T09:33:11.900Z,50.40
2022-10-11T09:35:44.055Z,50.72
2022-10-11T09:38:18.186Z,52.44
2022-10-11T09:40:55.567Z,53.47
2022-10-11T09:43:23.528Z,53.85
2022-10-11T09:45:51.777Z,52.46
2022-10-11T09:48:23.906Z,52.55
2022-10-11T09:50:59.310Z,48.55
2022-10-11T09:53:56.032Z,46.97
2022-10-11T09:56:25.152Z,48.67
2022-10-11T09:59:10.199Z,47.27
2022-10-11T10:01:38.424Z,47.96
2022-10-11T10:04:09.596Z,47.96
2022-10-11T10:06:40.086Z,46.72
2022-10-11T10:09:26.057Z,42.90
2022-10-11T10:11:55.105Z,42.54
2022-10-11T10:14:26.353Z,42.99
2022-10-11T10:17:03.967Z,39.04
2022-10-11T10:19:44.722Z,41.37
2022-10-11T10:22:20.619Z,42.24
2022-10-11T10:24:50.249Z,41.55
2022-10-11T10:27:22.407Z,42.00
2022-10-11T10:30:17.089Z,45.18
2022-10-11T10:32:52.205Z,44.95
2022-10-11T10:35:31.157Z,45.85
2022-10-11T10:38:09.181Z,45.84
2022-10-11T10:40:47.296Z,46.16
2022-10-11T10:43:17.516Z,45.19
2022-10-11T10:46:14.475Z,45.25
2022-10-11T10:49:23.594Z,44.09
2022-10-11T10:51:49.299Z,43.19
2022-10-11T10:54:33.038Z,41.33
2022-10-11T10:57:04.214Z,42.48
2022-10-11T10:59:49.314Z,42.51
2022-10-11T11:02:39.683Z,42.34
2022-10-11T11:05:18.727Z,41.11
2022-10-11T11:07:50.893Z,41.23
2022-10-11T11:10:24.009Z,41.31
2022-10-11T11:12:55.746Z,41.14
2022-10-11T11:15:32.629Z,39.87
2022-10-11T11:18:21.348Z,38.29
2022-10-11T11:21:06.118Z,38.39
2022-10-11T11:23:41.883Z,41.19
2022-10-11T11:26:19.282Z,40.25
2022-10-11T11:29:04.329Z,38.94
2022-10-11T11:31:45.901Z,38.25
2022-10-11T11:34:19.470Z,38.17
2022-10-11T11:36:50.027Z,37.94
2022-10-11T11:39:21.963Z,37.11
2022-10-11T11:41:56.390Z,35.72
2022-10-11T11:44:30.644Z,34.90
2022-10-11T11:47:04.237Z,33.34
2022-10-11T11:49:36.886Z,33.41
2022-10-11T11:52:06.595Z,35.57
2022-10-11T11:54:47.841Z,39.79
2022-10-11T11:57:33.760Z,40.54
2022-10-11T12:00:07.790Z,41.35
2022-10-11T12:02:46.456Z,42.17
2022-10-11T12:05:18.379Z,42.21
2022-10-11T12:07:53.941Z,42.83
2022-10-11T12:10:32.191Z,43.73
2022-10-11T12:13:10.873Z,44.38
2022-10-11T12:15:39.496Z,44.74
2022-10-11T12:18:15.973Z,44.99
2022-10-11T12:20:45.728Z,45.04
2022-10-11T12:23:40.637Z,45.53
2022-10-11T12:26:35.596Z,45.03
2022-10-11T12:29:34.266Z,44.60
2022-10-11T12:32:45.165Z,45.19
2022-10-11T12:35:40.090Z,44.89
2022-10-11T12:38:16.813Z,45.42
2022-10-11T12:40:47.347Z,45.21
2022-10-11T12:43:37.428Z,45.41
2022-10-11T12:46:39.451Z,46.22
2022-10-11T12:49:26.994Z,44.96
2022-10-11T12:52:01.308Z,42.91
2022-10-11T12:55:13.875Z,42.50
2022-10-11T12:58:07.532Z,42.59
2022-10-11T13:00:43.765Z,43.30
2022-10-11T13:03:32.657Z,43.21
2022-10-11T13:06:02.097Z,42.82
2022-10-11T13:08:35.769Z,43.06
2022-10-11T13:11:06.899Z,43.88
2022-10-11T13:13:40.781Z,44.32
2022-10-11T13:16:12.884Z,43.88
2022-10-11T13:18:48.413Z,44.31
2022-10-11T13:21:23.022Z,44.42
2022-10-11T13:23:57.980Z,45.24
2022-10-11T13:26:28.075Z,44.53
2022-10-11T13:28:57.122Z,45.71
2022-10-11T13:31:26.234Z,45.14
2022-10-11T13:33:59.022Z,45.61
2022-10-11T13:36:28.510Z,44.92
2022-10-11T13:38:58.890Z,43.38
2022-10-11T13:41:28.190Z,44.03
2022-10-11T13:43:58.216Z,43.62
2022-10-11T13:46:28.643Z,43.44
2022-10-11T13:49:02.962Z,43.39
2022-10-11T13:51:34.736Z,42.91
2022-10-11T13:54:05.303Z,43.94
2022-10-11T13:56:37.500Z,43.86
2022-10-11T13:59:06.018Z,43.92
2022-10-11T14:01:41.048Z,43.58
2022-10-11T14:04:12.489Z,43.12
2022-10-11T14:06:47.393Z,43.20
2022-10-11T14:09:21.532Z,43.21
2022-10-11T14:11:50.017Z,40.80
2022-10-11T14:14:42.062Z,40.95
2022-10-11T14:17:17.262Z,40.74
2022-10-11T14:19:49.602Z,42.79
2022-10-11T14:22:19.319Z,42.24
2022-10-11T14:24:49.037Z,42.98
2022-10-11T14:27:21.381Z,43.52
2022-10-11T14:30:12.889Z,43.88
2022-10-11T14:32:37.754Z,43.88
2022-10-11T14:35:07.747Z,43.09
2022-10-11T14:37:40.325Z,43.82
2022-10-11T14:40:20.034Z,43.13
2022-10-11T14:42:48.245Z,42.38
2022-10-11T14:45:16.451Z,42.22
2022-10-11T14:47:45.145Z,43.33
2022-10-11T14:50:29.788Z,42.59
2022-10-11T14:52:58.128Z,42.74
2022-10-11T14:55:26.186Z,43.53
2022-10-11T14:57:55.275Z,42.90
2022-10-11T15:00:26.966Z,42.93
2022-10-11T15:02:55.741Z,42.37
2022-10-11T15:05:32.706Z,42.49
2022-10-11T15:08:01.951Z,42.62
2022-10-11T15:10:32.066Z,43.38
2022-10-11T15:13:00.391Z,43.11
2022-10-11T15:15:30.614Z,42.98
2022-10-11T15:18:01.794Z,43.41
2022-10-11T15:20:33.621Z,43.96
2022-10-11T15:23:02.259Z,43.71
2022-10-11T15:25:30.740Z,43.58
2022-10-11T15:27:59.357Z,43.95
2022-10-11T15:30:30.782Z,44.07
2022-10-11T15:32:58.907Z,43.97
2022-10-11T15:35:29.542Z,44.46
2022-10-11T15:38:00.936Z,44.17
2022-10-11T15:40:33.333Z,44.49
2022-10-11T15:43:01.824Z,44.81
2022-10-11T15:45:30.613Z,44.68
2022-10-11T15:47:59.298Z,44.68
2022-10-11T15:50:37.840Z,45.81
2022-10-11T15:53:09.254Z,45.70
2022-10-11T15:55:39.584Z,45.54
2022-10-11T15:58:08.075Z,46.08
2022-10-11T16:00:35.987Z,46.15
2022-10-11T16:03:03.948Z,46.06
2022-10-11T16:05:31.941Z,46.87
2022-10-11T16:08:00.191Z,47.49
2022-10-11T16:10:29.513Z,47.99
2022-10-11T16:12:57.804Z,48.24
2022-10-11T16:15:25.941Z,48.50
2022-10-11T16:17:53.835Z,48.98
2022-10-11T16:20:24.360Z,48.69
2022-10-11T16:22:54.075Z,49.57
2022-10-11T16:25:22.928Z,49.92
2022-10-11T16:27:53.172Z,51.27
2022-10-11T16:30:21.350Z,51.58
2022-10-11T16:32:49.259Z,51.61
2022-10-11T16:35:18.029Z,52.59
2022-10-11T16:37:46.116Z,52.83
2022-10-11T16:40:17.458Z,53.42
2022-10-11T16:42:46.353Z,53.50
2022-10-11T16:45:16.912Z,54.35
2022-10-11T16:47:45.465Z,55.19
2022-10-11T16:50:14.216Z,55.75
2022-10-11T16:52:42.213Z,55.79
2022-10-11T16:55:10.920Z,56.03
2022-10-11T16:57:38.894Z,56.95
2022-10-11T17:00:08.703Z,57.82
2022-10-11T17:02:38.022Z,58.04
2022-10-11T17:05:06.566Z,58.69
2022-10-11T17:07:34.635Z,60.08
2022-10-11T17:10:02.723Z,59.83
2022-10-11T17:12:31.913Z,60.58
2022-10-11T17:14:59.887Z,60.64
2022-10-11T17:17:28.097Z,61.65
2022-10-11T17:19:57.428Z,62.11
2022-10-11T17:22:25.962Z,62.41
2022-10-11T17:24:53.982Z,63.16
2022-10-11T17:27:21.949Z,63.35
2022-10-11T17:29:49.923Z,63.58
2022-10-11T17:32:17.873Z,64.31
2022-10-11T17:34:45.789Z,65.02
2022-10-11T17:37:15.261Z,65.76
2022-10-11T17:39:43.409Z,65.62
2022-10-11T17:42:11.382Z,66.07
2022-10-11T17:44:39.393Z,65.84
2022-10-11T17:47:07.359Z,66.15
2022-10-11T17:49:35.306Z,66.42
2022-10-11T17:52:03.426Z,66.73
2022-10-11T17:54:32.965Z,66.77
2022-10-11T17:57:01.003Z,67.19
2022-10-11T17:59:30.568Z,67.90
2022-10-11T18:01:58.707Z,68.08
2022-10-11T18:04:29.630Z,68.59
2022-10-11T18:06:57.619Z,69.07
2022-10-11T18:09:25.627Z,69.50
2022-10-11T18:11:54.891Z,69.82
2022-10-11T18:14:23.064Z,70.14
2022-10-11T18:16:51.342Z,69.98
2022-10-11T18:19:19.304Z,70.61
2022-10-11T18:21:47.274Z,69.99
2022-10-11T18:24:17.252Z,70.76
2022-10-11T18:26:46.638Z,71.16
2022-10-11T18:29:16.171Z,71.64
2022-10-11T18:31:44.244Z,72.29
2022-10-11T18:34:14.093Z,72.11
2022-10-11T18:36:42.136Z,72.42
2022-10-11T18:39:14.269Z,72.55
2022-10-11T18:41:44.500Z,72.50
2022-10-11T18:44:15.033Z,73.09
2022-10-11T18:46:44.938Z,73.25
2022-10-11T18:49:13.437Z,73.68
2022-10-11T18:51:42.974Z,73.98
2022-10-11T18:54:15.241Z,74.08
2022-10-11T18:56:46.703Z,74.40
2022-10-11T18:59:14.629Z,74.33
2022-10-11T19:01:45.672Z,74.07
2022-10-11T19:04:16.838Z,73.91
2022-10-11T19:06:47.590Z,74.28
2022-10-11T19:09:21.305Z,74.93
2022-10-11T19:11:49.830Z,75.32
2022-10-11T19:14:20.469Z,75.92
2022-10-11T19:16:51.695Z,76.09
2022-10-11T19:19:21.381Z,76.20
2022-10-11T19:21:49.661Z,76.40
2022-10-11T19:24:18.927Z,75.98
2022-10-11T19:26:49.026Z,75.77
2022-10-11T19:29:19.783Z,76.05
2022-10-11T19:31:50.787Z,75.73
2022-10-11T19:34:19.583Z,76.41
2022-10-11T19:36:50.097Z,76.14
2022-10-11T19:39:21.642Z,77.06
2022-10-11T19:41:50.441Z,76.66
2022-10-11T19:44:18.763Z,77.72
2022-10-11T19:46:54.128Z,77.05
2022-10-11T19:49:25.734Z,78.04
2022-10-11T19:51:55.256Z,77.28
2022-10-11T19:54:23.931Z,78.00
2022-10-11T19:56:52.525Z,78.67
2022-10-11T19:59:20.838Z,78.04
2022-10-11T20:01:52.624Z,78.07
2022-10-11T20:04:50.546Z,78.03
2022-10-11T20:07:11.468Z,78.21
2022-10-11T20:09:39.370Z,79.14
2022-10-11T20:12:08.045Z,79.70
2022-10-11T20:14:36.037Z,79.82
2022-10-11T20:17:04.040Z,80.09
2022-10-11T20:19:33.624Z,79.66
2022-10-11T20:22:02.169Z,78.41
2022-10-11T20:24:33.516Z,78.22
2022-10-11T20:27:03.378Z,79.12
2022-10-11T20:29:31.411Z,79.45
2022-10-11T20:31:59.832Z,79.49
2022-10-11T20:34:28.648Z,79.88
2022-10-11T20:36:57.951Z,79.62
2022-10-11T20:39:26.070Z,80.17
2022-10-11T20:41:53.987Z,80.74
2022-10-11T20:44:21.910Z,80.87
2022-10-11T20:46:49.929Z,81.10
2022-10-11T20:49:19.796Z,80.09
2022-10-11T20:51:47.920Z,80.33
2022-10-11T20:54:17.752Z,80.36
2022-10-11T20:56:45.919Z,80.28
2022-10-11T20:59:13.806Z,80.58
2022-10-11T21:01:42.836Z,81.18
2022-10-11T21:04:18.369Z,80.79
2022-10-11T21:06:46.568Z,81.08
2022-10-11T21:09:16.557Z,81.24
2022-10-11T21:11:46.805Z,80.62
2022-10-11T21:14:14.779Z,81.58
2022-10-11T21:16:43.052Z,81.21
2022-10-11T21:19:16.090Z,81.73
2022-10-11T21:21:50.884Z,82.22
2022-10-11T21:24:21.473Z,81.68
2022-10-11T21:26:50.813Z,82.31
2022-10-11T21:29:19.182Z,82.09
2022-10-11T21:31:47.134Z,82.58
2022-10-11T21:34:15.228Z,81.68
2022-10-11T21:36:43.459Z,82.93
2022-10-11T21:39:11.443Z,83.10
2022-10-11T21:41:41.914Z,82.74
2022-10-11T21:44:11.336Z,83.03
2022-10-11T21:47:05.542Z,82.57
2022-10-11T21:49:27.143Z,82.78
2022-10-11T21:51:55.321Z,83.26
2022-10-11T21:54:23.225Z,82.91
2022-10-11T21:56:51.115Z,83.05
2022-10-11T21:59:20.404Z,82.73
2022-10-11T22:01:48.416Z,82.61
2022-10-11T22:04:16.333Z,82.75
2022-10-11T22:06:44.278Z,82.75
2022-10-11T22:09:12.236Z,83.21
2022-10-11T22:11:40.119Z,82.55
2022-10-11T22:14:08.848Z,82.97
2022-10-11T22:16:38.196Z,82.86
2022-10-11T22:19:06.168Z,83.04
2022-10-11T22:21:34.127Z,82.08
2022-10-11T22:24:02.072Z,82.70
2022-10-11T22:26:31.782Z,82.74
2022-10-11T22:29:00.596Z,83.44
2022-10-11T22:31:29.216Z,84.04
2022-10-11T22:34:00.470Z,82.82
2022-10-11T22:36:30.353Z,82.57
2022-10-11T22:38:58.608Z,82.83
2022-10-11T22:41:26.760Z,83.78
2022-10-11T22:43:54.651Z,83.47
2022-10-11T22:46:22.515Z,83.80
2022-10-11T22:48:50.421Z,83.73
2022-10-11T22:51:19.780Z,83.38
2022-10-11T22:53:47.666Z,82.43
2022-10-11T22:56:15.660Z,83.29
2022-10-11T22:58:43.532Z,83.40
2022-10-11T23:01:13.683Z,83.15
2022-10-11T23:03:41.606Z,84.05
2022-10-11T23:06:09.903Z,84.11
2022-10-11T23:08:39.166Z,83.58
2022-10-11T23:11:08.312Z,84.78
2022-10-11T23:13:36.630Z,83.89
2022-10-11T23:16:08.823Z,84.08
2022-10-11T23:18:36.734Z,83.38
2022-10-11T23:21:05.959Z,83.59
2022-10-11T23:23:34.271Z,83.49
2022-10-11T23:26:06.209Z,83.58
2022-10-11T23:28:34.232Z,83.88
2022-10-11T23:31:06.406Z,84.43
2022-10-11T23:33:34.287Z,83.89
2022-10-11T23:36:02.353Z,84.36
2022-10-11T23:38:30.277Z,84.04
2022-10-11T23:40:58.165Z,84.00
2022-10-11T23:43:27.394Z,84.51
2022-10-11T23:45:55.877Z,84.70
2022-10-11T23:48:23.806Z,83.99
2022-10-11T23:50:51.699Z,83.99
2022-10-11T23:53:19.564Z,84.79
2022-10-11T23:55:47.462Z,84.29
2022-10-11T23:58:15.390Z,83.99
